createdAt,value
2023-02-12T00:01:40.971Z,64.07
2023-02-12T00:04:09.858Z,64.08
2023-02-12T00:06:40.306Z,63.37
2023-02-12T00:09:08.668Z,63.83
2023-02-12T00:11:37.060Z,63.34
2023-02-12T00:14:05.893Z,63.03
2023-02-12T00:16:34.437Z,63.09
2023-02-12T00:19:03.023Z,62.88
2023-02-12T00:21:31.409Z,62.91
2023-02-12T00:23:59.702Z,62.96
2023-02-12T00:26:28.292Z,62.67
2023-02-12T00:28:57.079Z,63.28
2023-02-12T00:31:28.969Z,62.99
2023-02-12T00:34:01.015Z,62.84
2023-02-12T00:36:31.939Z,62.98
2023-02-12T00:39:00.958Z,62.75
2023-02-12T00:41:30.049Z,62.44
2023-02-12T00:43:58.652Z,62.47
2023-02-12T00:46:26.850Z,62.55
2023-02-12T00:48:55.611Z,62.19
2023-02-12T00:51:24.200Z,62.06
2023-02-12T00:53:52.382Z,61.95
2023-02-12T00:56:20.570Z,61.96
2023-02-12T00:58:51.098Z,61.61
2023-02-12T01:01:19.755Z,61.82
2023-02-12T01:03:48.579Z,62.21
2023-02-12T01:06:17.066Z,62.31
2023-02-12T01:08:51.610Z,62.40
2023-02-12T01:11:20.901Z,62.48
2023-02-12T01:13:50.207Z,62.82
2023-02-12T01:16:22.250Z,63.40
2023-02-12T01:18:55.827Z,63.80
2023-02-12T01:21:28.422Z,63.34
2023-02-12T01:23:58.244Z,64.65
2023-02-12T01:26:28.305Z,64.34
2023-02-12T01:29:01.537Z,64.03
2023-02-12T01:31:33.561Z,63.65
2023-02-12T01:34:03.892Z,64.35
2023-02-12T01:36:35.512Z,65.29
2023-02-12T01:39:06.007Z,65.60
2023-02-12T01:41:39.378Z,65.88
2023-02-12T01:44:13.184Z,66.07
2023-02-12T01:46:43.042Z,66.51
2023-02-12T01:49:17.518Z,66.32
2023-02-12T01:51:48.063Z,66.63
2023-02-12T01:54:20.130Z,66.55
2023-02-12T01:56:49.470Z,66.69
2023-02-12T01:59:20.376Z,66.68
2023-02-12T02:01:49.016Z,66.66
2023-02-12T02:04:23.505Z,66.62
2023-02-12T02:07:03.544Z,66.24
2023-02-12T02:09:35.105Z,66.29
2023-02-12T02:12:23.027Z,66.23
2023-02-12T02:14:54.756Z,66.30
2023-02-12T02:17:40.877Z,66.21
2023-02-12T02:21:06.770Z,66.18
2023-02-12T02:23:35.156Z,65.79
2023-02-12T02:26:23.189Z,65.41
2023-02-12T02:29:29.844Z,65.17
2023-02-12T02:32:17.278Z,65.51
2023-02-12T02:34:58.957Z,65.53
2023-02-12T02:37:49.335Z,65.52
2023-02-12T02:40:24.807Z,66.22
2023-02-12T02:42:53.471Z,67.00
2023-02-12T02:45:35.264Z,68.10
2023-02-12T02:48:15.418Z,68.43
2023-02-12T02:50:53.214Z,69.01
2023-02-12T02:53:32.450Z,69.64
2023-02-12T02:56:06.051Z,70.73
2023-02-12T02:58:46.716Z,70.63
2023-02-12T03:01:21.688Z,71.26
2023-02-12T03:03:58.025Z,71.94
2023-02-12T03:06:36.170Z,72.51
2023-02-12T03:09:15.353Z,72.68
2023-02-12T03:11:44.043Z,72.74
2023-02-12T03:14:27.783Z,72.90
2023-02-12T03:17:28.706Z,72.35
2023-02-12T03:20:05.270Z,72.95
2023-02-12T03:22:39.904Z,72.77
2023-02-12T03:25:18.321Z,72.47
2023-02-12T03:27:58.548Z,72.46
2023-02-12T03:30:39.417Z,72.51
2023-02-12T03:33:07.728Z,72.24
2023-02-12T03:35:44.298Z,72.96
2023-02-12T03:38:26.604Z,73.55
2023-02-12T03:41:09.318Z,73.92
2023-02-12T03:43:57.956Z,73.22
2023-02-12T03:46:47.270Z,73.80
2023-02-12T03:49:24.755Z,74.13
2023-02-12T03:51:54.122Z,73.87
2023-02-12T03:54:23.232Z,73.88
2023-02-12T03:57:12.391Z,74.49
2023-02-12T03:59:41.495Z,74.32
2023-02-12T04:02:10.497Z,74.84
2023-02-12T04:04:39.472Z,74.69
2023-02-12T04:07:08.436Z,74.66
2023-02-12T04:09:36.853Z,74.47
2023-02-12T04:12:28.317Z,74.90
2023-02-12T04:15:17.725Z,75.01
2023-02-12T04:18:10.687Z,74.90
2023-02-12T04:20:54.920Z,75.21
2023-02-12T04:23:55.442Z,75.43
2023-02-12T04:26:49.919Z,75.96
2023-02-12T04:29:24.546Z,76.37
2023-02-12T04:32:31.025Z,76.93
2023-02-12T04:34:59.385Z,77.69
2023-02-12T04:37:42.285Z,77.77
2023-02-12T04:40:14.786Z,77.85
2023-02-12T04:42:49.067Z,77.52
2023-02-12T04:45:29.558Z,77.58
2023-02-12T04:47:58.049Z,78.17
2023-02-12T04:50:28.580Z,78.04
2023-02-12T04:52:56.760Z,77.35
2023-02-12T04:55:25.245Z,77.33
2023-02-12T04:57:53.534Z,77.70
2023-02-12T05:00:22.369Z,77.42
2023-02-12T05:02:51.220Z,77.95
2023-02-12T05:05:21.087Z,77.77
2023-02-12T05:07:50.003Z,77.26
2023-02-12T05:10:18.724Z,76.95
2023-02-12T05:12:47.219Z,76.79
2023-02-12T05:15:16.005Z,76.81
2023-02-12T05:17:45.943Z,76.72
2023-02-12T05:20:14.512Z,77.58
2023-02-12T05:22:43.003Z,77.19
2023-02-12T05:25:11.904Z,76.86
2023-02-12T05:27:40.280Z,77.16
2023-02-12T05:30:09.681Z,77.75
2023-02-12T05:32:38.083Z,78.15
2023-02-12T05:35:07.358Z,78.50
2023-02-12T05:37:36.851Z,78.98
2023-02-12T05:40:07.149Z,79.47
2023-02-12T05:42:35.499Z,79.16
2023-02-12T05:45:04.342Z,79.39
2023-02-12T05:47:32.573Z,80.14
2023-02-12T05:50:01.367Z,80.64
2023-02-12T05:52:30.168Z,80.60
2023-02-12T05:54:58.445Z,80.75
2023-02-12T05:57:26.830Z,80.30
2023-02-12T05:59:55.010Z,80.38
2023-02-12T06:02:23.656Z,80.52
2023-02-12T06:04:52.390Z,80.91
2023-02-12T06:07:21.808Z,80.43
2023-02-12T06:09:50.895Z,80.43
2023-02-12T06:12:19.384Z,80.95
2023-02-12T06:14:47.573Z,80.24
2023-02-12T06:17:15.741Z,80.61
2023-02-12T06:19:43.920Z,81.21
2023-02-12T06:22:12.414Z,80.60
2023-02-12T06:24:40.790Z,80.86
2023-02-12T06:27:09.176Z,80.63
2023-02-12T06:29:37.566Z,80.55
2023-02-12T06:32:08.689Z,80.93
2023-02-12T06:34:37.301Z,81.89
2023-02-12T06:37:06.304Z,81.56
2023-02-12T06:39:34.487Z,81.41
2023-02-12T06:42:02.970Z,80.87
2023-02-12T06:44:31.354Z,81.08
2023-02-12T06:46:59.814Z,81.01
2023-02-12T06:49:28.329Z,80.78
2023-02-12T06:51:56.710Z,80.79
2023-02-12T06:54:24.890Z,80.82
2023-02-12T06:56:53.070Z,80.83
2023-02-12T06:59:21.663Z,80.70
2023-02-12T07:01:50.150Z,80.32
2023-02-12T07:04:18.768Z,80.33
2023-02-12T07:06:47.233Z,80.29
2023-02-12T07:09:15.711Z,80.16
2023-02-12T07:11:44.200Z,80.05
2023-02-12T07:14:17.200Z,80.17
2023-02-12T07:16:45.657Z,79.78
2023-02-12T07:19:14.264Z,79.81
2023-02-12T07:21:42.973Z,79.69
2023-02-12T07:24:12.547Z,79.59
2023-02-12T07:26:41.895Z,79.63
2023-02-12T07:29:10.610Z,79.37
2023-02-12T07:31:39.910Z,79.15
2023-02-12T07:34:08.050Z,79.13
2023-02-12T07:36:36.637Z,78.80
2023-02-12T07:39:05.537Z,78.55
2023-02-12T07:41:35.965Z,78.70
2023-02-12T07:44:10.690Z,78.42
2023-02-12T07:46:48.651Z,78.45
2023-02-12T07:49:20.542Z,78.05
2023-02-12T07:51:50.518Z,77.95
2023-02-12T07:54:18.901Z,77.88
2023-02-12T07:56:47.596Z,77.68
2023-02-12T07:59:18.379Z,77.53
2023-02-12T08:01:52.109Z,76.86
2023-02-12T08:04:23.717Z,76.48
2023-02-12T08:06:54.549Z,76.60
2023-02-12T08:09:27.128Z,76.27
2023-02-12T08:11:56.004Z,75.48
2023-02-12T08:14:24.266Z,75.03
2023-02-12T08:16:53.362Z,74.25
2023-02-12T08:19:26.217Z,74.03
2023-02-12T08:21:56.349Z,74.14
2023-02-12T08:24:25.856Z,74.29
2023-02-12T08:26:54.271Z,74.35
2023-02-12T08:29:26.345Z,74.42
2023-02-12T08:31:59.758Z,74.23
2023-02-12T08:34:30.886Z,74.24
2023-02-12T08:36:59.678Z,73.91
2023-02-12T08:39:29.593Z,73.49
2023-02-12T08:41:59.627Z,72.99
2023-02-12T08:44:28.741Z,72.49
2023-02-12T08:46:57.308Z,72.00
2023-02-12T08:49:30.564Z,71.74
2023-02-12T08:52:01.969Z,71.18
2023-02-12T08:54:31.733Z,70.86
2023-02-12T08:57:02.138Z,70.87
2023-02-12T08:59:31.046Z,70.03
2023-02-12T09:02:00.837Z,69.44
2023-02-12T09:04:30.425Z,69.14
2023-02-12T09:06:59.017Z,68.56
2023-02-12T09:09:27.305Z,67.92
2023-02-12T09:11:55.786Z,66.21
2023-02-12T09:14:24.948Z,65.11
2023-02-12T09:16:54.669Z,64.44
2023-02-12T09:19:23.425Z,62.78
2023-02-12T09:21:55.497Z,60.51
2023-02-12T09:24:27.841Z,58.51
2023-02-12T09:26:57.268Z,55.24
2023-02-12T09:29:25.830Z,53.69
2023-02-12T09:31:54.322Z,49.96
2023-02-12T09:34:22.763Z,46.90
2023-02-12T09:36:51.082Z,47.21
2023-02-12T09:39:22.336Z,46.38
2023-02-12T09:41:50.613Z,44.26
2023-02-12T09:44:22.584Z,41.94
2023-02-12T09:47:20.656Z,40.97
2023-02-12T09:50:00.898Z,41.62
2023-02-12T09:52:30.365Z,40.45
2023-02-12T09:54:59.457Z,39.33
2023-02-12T09:57:35.881Z,37.62
2023-02-12T10:00:31.483Z,38.60
2023-02-12T10:03:05.971Z,39.75
2023-02-12T10:05:41.259Z,37.00
2023-02-12T10:08:46.072Z,32.94
2023-02-12T10:11:26.016Z,32.01
2023-02-12T10:14:42.304Z,32.56
2023-02-12T10:17:37.005Z,33.67
2023-02-12T10:20:41.513Z,34.40
2023-02-12T10:23:28.737Z,35.09
2023-02-12T10:26:00.067Z,35.20
2023-02-12T10:28:35.889Z,33.08
2023-02-12T10:31:16.418Z,32.94
2023-02-12T10:33:49.137Z,31.82
2023-02-12T10:36:24.492Z,30.76
2023-02-12T10:38:59.221Z,30.75
2023-02-12T10:41:30.573Z,29.50
2023-02-12T10:44:00.285Z,30.56
2023-02-12T10:46:32.215Z,30.49
2023-02-12T10:49:01.131Z,30.43
2023-02-12T10:51:49.028Z,30.74
2023-02-12T10:54:44.077Z,28.32
2023-02-12T10:57:31.307Z,28.29
2023-02-12T11:00:25.047Z,27.30
2023-02-12T11:03:04.593Z,28.00
2023-02-12T11:05:36.598Z,28.58
2023-02-12T11:08:06.369Z,27.62
2023-02-12T11:10:42.232Z,26.56
2023-02-12T11:13:28.211Z,25.55
2023-02-12T11:15:56.821Z,26.42
2023-02-12T11:18:28.865Z,26.83
2023-02-12T11:20:58.549Z,27.04
2023-02-12T11:23:38.137Z,27.01
2023-02-12T11:26:07.638Z,27.03
2023-02-12T11:28:37.273Z,27.08
2023-02-12T11:31:23.418Z,27.59
2023-02-12T11:34:17.467Z,27.47
2023-02-12T11:36:50.804Z,29.06
2023-02-12T11:39:24.923Z,30.65
2023-02-12T11:41:59.942Z,31.49
2023-02-12T11:44:38.566Z,32.32
2023-02-12T11:47:10.945Z,32.67
2023-02-12T11:49:44.383Z,34.44
2023-02-12T11:52:22.018Z,35.10
2023-02-12T11:54:53.806Z,34.96
2023-02-12T11:57:48.587Z,34.61
2023-02-12T12:00:29.563Z,33.93
2023-02-12T12:03:13.807Z,33.62
2023-02-12T12:05:54.796Z,32.99
2023-02-12T12:08:36.265Z,32.22
2023-02-12T12:11:13.038Z,32.24
2023-02-12T12:13:51.754Z,32.77
2023-02-12T12:16:49.716Z,33.82
2023-02-12T12:19:53.313Z,34.18
2023-02-12T12:22:48.598Z,34.41
2023-02-12T12:25:27.583Z,34.86
2023-02-12T12:28:41.014Z,34.46
2023-02-12T12:31:36.171Z,34.82
2023-02-12T12:34:13.429Z,34.72
2023-02-12T12:37:06.370Z,35.15
2023-02-12T12:39:45.411Z,34.50
2023-02-12T12:43:11.804Z,34.60
2023-02-12T12:45:43.294Z,33.94
2023-02-12T12:48:34.425Z,33.58
2023-02-12T12:51:25.271Z,34.16
2023-02-12T12:54:11.654Z,34.10
2023-02-12T12:56:45.268Z,33.85
2023-02-12T12:59:25.309Z,34.13
2023-02-12T13:01:56.767Z,33.70
2023-02-12T13:04:49.708Z,34.51
2023-02-12T13:07:39.381Z,33.41
2023-02-12T13:10:23.420Z,32.74
2023-02-12T13:13:07.064Z,32.84
2023-02-12T13:15:54.513Z,32.96
2023-02-12T13:18:55.294Z,32.47
2023-02-12T13:21:37.912Z,31.79
2023-02-12T13:24:28.706Z,32.27
2023-02-12T13:27:04.787Z,32.87
2023-02-12T13:29:42.148Z,33.94
2023-02-12T13:32:22.750Z,35.08
2023-02-12T13:34:53.614Z,35.55
2023-02-12T13:37:40.354Z,36.33
2023-02-12T13:40:19.110Z,36.95
2023-02-12T13:43:06.184Z,37.56
2023-02-12T13:45:44.949Z,38.21
2023-02-12T13:48:54.634Z,38.43
2023-02-12T13:51:31.509Z,38.72
2023-02-12T13:54:21.800Z,38.82
2023-02-12T13:57:14.953Z,38.93
2023-02-12T13:59:44.257Z,39.25
2023-02-12T14:02:12.902Z,39.30
2023-02-12T14:04:48.080Z,39.03
2023-02-12T14:07:16.961Z,39.42
2023-02-12T14:09:51.095Z,40.57
2023-02-12T14:12:25.717Z,41.20
2023-02-12T14:15:31.268Z,41.60
2023-02-12T14:18:02.608Z,41.79
2023-02-12T14:20:32.421Z,42.24
2023-02-12T14:23:02.488Z,42.20
2023-02-12T14:25:44.442Z,41.17
2023-02-12T14:28:37.194Z,37.93
2023-02-12T14:31:23.895Z,36.01
2023-02-12T14:34:13.031Z,36.30
2023-02-12T14:36:46.636Z,37.38
2023-02-12T14:39:20.961Z,38.26
2023-02-12T14:41:50.268Z,38.88
2023-02-12T14:44:18.574Z,39.67
2023-02-12T14:46:51.120Z,39.87
2023-02-12T14:49:46.929Z,40.55
2023-02-12T14:52:40.604Z,40.82
2023-02-12T14:55:22.588Z,41.23
2023-02-12T14:57:55.883Z,41.65
2023-02-12T15:00:34.525Z,42.16
2023-02-12T15:03:15.596Z,42.95
2023-02-12T15:06:10.769Z,43.94
2023-02-12T15:08:47.750Z,44.51
2023-02-12T15:11:38.856Z,44.19
2023-02-12T15:14:28.425Z,45.38
2023-02-12T15:17:06.224Z,45.51
2023-02-12T15:19:37.473Z,45.49
2023-02-12T15:22:18.859Z,46.21
2023-02-12T15:24:47.346Z,46.67
2023-02-12T15:27:16.641Z,46.64
2023-02-12T15:29:55.362Z,46.87
2023-02-12T15:32:29.146Z,46.74
2023-02-12T15:34:57.355Z,47.16
2023-02-12T15:37:30.890Z,47.42
2023-02-12T15:40:08.860Z,47.48
2023-02-12T15:42:40.563Z,47.97
2023-02-12T15:45:14.955Z,48.93
2023-02-12T15:47:45.102Z,49.72
2023-02-12T15:50:18.069Z,49.44
2023-02-12T15:52:48.176Z,50.10
2023-02-12T15:55:20.553Z,50.58
2023-02-12T15:57:54.496Z,51.41
2023-02-12T16:00:43.351Z,52.15
2023-02-12T16:03:31.961Z,52.84
2023-02-12T16:06:05.256Z,53.38
2023-02-12T16:08:35.738Z,53.27
2023-02-12T16:11:14.234Z,53.36
2023-02-12T16:13:48.328Z,53.85
2023-02-12T16:16:22.472Z,53.92
2023-02-12T16:19:05.675Z,54.14
2023-02-12T16:21:38.306Z,54.37
2023-02-12T16:24:39.060Z,54.23
2023-02-12T16:27:24.642Z,53.96
2023-02-12T16:29:59.676Z,54.19
2023-02-12T16:32:30.311Z,54.02
2023-02-12T16:35:07.797Z,53.96
2023-02-12T16:37:39.051Z,54.42
2023-02-12T16:40:13.480Z,54.89
2023-02-12T16:42:47.808Z,55.08
2023-02-12T16:45:26.718Z,54.82
2023-02-12T16:47:59.809Z,55.39
2023-02-12T16:50:34.229Z,56.04
2023-02-12T16:53:06.915Z,56.28
2023-02-12T16:55:36.940Z,56.71
2023-02-12T16:58:05.940Z,56.75
2023-02-12T17:00:34.523Z,57.08
2023-02-12T17:03:03.025Z,56.97
2023-02-12T17:05:31.978Z,56.79
2023-02-12T17:08:00.394Z,57.08
2023-02-12T17:10:28.882Z,56.96
2023-02-12T17:12:57.576Z,57.31
2023-02-12T17:15:34.668Z,56.90
2023-02-12T17:18:03.396Z,56.74
2023-02-12T17:20:31.837Z,57.01
2023-02-12T17:23:01.250Z,56.96
2023-02-12T17:25:30.566Z,56.71
2023-02-12T17:27:59.069Z,56.51
2023-02-12T17:30:29.267Z,56.69
2023-02-12T17:32:57.558Z,57.10
2023-02-12T17:35:26.356Z,56.60
2023-02-12T17:37:54.796Z,56.67
2023-02-12T17:40:23.521Z,57.15
2023-02-12T17:42:52.109Z,57.49
2023-02-12T17:45:20.704Z,57.25
2023-02-12T17:47:50.209Z,57.80
2023-02-12T17:50:19.210Z,58.22
2023-02-12T17:52:47.999Z,58.79
2023-02-12T17:55:18.017Z,59.51
2023-02-12T17:57:53.772Z,60.64
2023-02-12T18:00:23.709Z,61.62
2023-02-12T18:02:52.964Z,62.56
2023-02-12T18:05:21.893Z,62.61
2023-02-12T18:07:50.687Z,62.80
2023-02-12T18:10:22.139Z,62.97
2023-02-12T18:12:50.628Z,63.81
2023-02-12T18:15:21.366Z,63.69
2023-02-12T18:17:49.961Z,63.48
2023-02-12T18:20:18.646Z,63.74
2023-02-12T18:22:47.811Z,63.95
2023-02-12T18:25:18.074Z,65.08
2023-02-12T18:27:47.380Z,64.57
2023-02-12T18:30:16.390Z,64.95
2023-02-12T18:32:44.769Z,64.77
2023-02-12T18:35:13.248Z,65.24
2023-02-12T18:37:43.361Z,65.30
2023-02-12T18:40:12.387Z,65.05
2023-02-12T18:42:41.268Z,65.08
2023-02-12T18:45:10.478Z,65.06
2023-02-12T18:47:38.761Z,65.08
2023-02-12T18:50:08.306Z,65.04
2023-02-12T18:52:37.552Z,65.11
2023-02-12T18:55:07.400Z,65.05
2023-02-12T18:57:35.769Z,64.79
2023-02-12T19:00:05.231Z,64.70
2023-02-12T19:02:33.563Z,65.16
2023-02-12T19:05:04.758Z,65.01
2023-02-12T19:07:33.109Z,65.12
2023-02-12T19:10:01.440Z,65.23
2023-02-12T19:12:30.279Z,65.27
2023-02-12T19:14:58.654Z,65.20
2023-02-12T19:17:28.164Z,65.38
2023-02-12T19:19:56.653Z,65.61
2023-02-12T19:22:25.240Z,65.21
2023-02-12T19:24:53.734Z,65.22
2023-02-12T19:27:22.320Z,64.97
2023-02-12T19:29:50.800Z,64.75
2023-02-12T19:32:19.024Z,64.69
2023-02-12T19:34:47.984Z,64.47
2023-02-12T19:37:16.570Z,64.11
2023-02-12T19:39:44.955Z,63.68
2023-02-12T19:42:15.029Z,63.64
2023-02-12T19:44:44.629Z,64.15
2023-02-12T19:47:12.985Z,63.75
2023-02-12T19:49:42.512Z,63.35
2023-02-12T19:52:11.176Z,63.35
2023-02-12T19:54:39.465Z,63.24
2023-02-12T19:57:09.861Z,63.10
2023-02-12T19:59:39.135Z,63.07
2023-02-12T20:02:07.480Z,63.10
2023-02-12T20:04:35.965Z,63.54
2023-02-12T20:07:05.068Z,63.43
2023-02-12T20:09:34.169Z,63.35
2023-02-12T20:12:03.696Z,63.79
2023-02-12T20:14:32.165Z,64.14
2023-02-12T20:17:00.963Z,63.97
2023-02-12T20:19:32.209Z,64.36
2023-02-12T20:22:02.313Z,64.32
2023-02-12T20:24:34.111Z,64.28
2023-02-12T20:27:03.676Z,64.26
2023-02-12T20:29:33.019Z,63.95
2023-02-12T20:32:01.490Z,63.84
2023-02-12T20:34:34.769Z,63.87
2023-02-12T20:37:10.858Z,63.82
2023-02-12T20:39:39.242Z,63.62
2023-02-12T20:42:07.728Z,63.54
2023-02-12T20:44:36.111Z,63.53
2023-02-12T20:47:04.397Z,63.61
2023-02-12T20:49:32.674Z,63.35
2023-02-12T20:52:01.279Z,63.35
2023-02-12T20:54:29.546Z,63.13
2023-02-12T20:56:58.030Z,63.75
2023-02-12T20:59:26.624Z,63.86
2023-02-12T21:01:55.121Z,63.88
2023-02-12T21:04:23.703Z,64.04
2023-02-12T21:06:52.395Z,64.17
2023-02-12T21:09:20.777Z,63.84
2023-02-12T21:11:49.775Z,63.41
2023-02-12T21:14:22.426Z,63.67
2023-02-12T21:16:54.385Z,63.77
2023-02-12T21:19:23.316Z,63.75
2023-02-12T21:21:52.115Z,63.01
2023-02-12T21:24:26.129Z,63.38
2023-02-12T21:26:55.742Z,63.90
2023-02-12T21:29:24.216Z,63.72
2023-02-12T21:31:52.762Z,64.02
2023-02-12T21:34:23.187Z,64.19
2023-02-12T21:36:55.094Z,64.38
2023-02-12T21:39:27.669Z,64.47
2023-02-12T21:42:03.109Z,64.87
2023-02-12T21:44:35.489Z,65.22
2023-02-12T21:47:05.405Z,65.59
2023-02-12T21:49:33.827Z,65.44
2023-02-12T21:52:04.443Z,65.50
2023-02-12T21:54:33.548Z,65.48
2023-02-12T21:57:01.935Z,65.29
2023-02-12T21:59:32.406Z,65.27
2023-02-12T22:02:02.048Z,65.30
2023-02-12T22:04:30.693Z,65.14
2023-02-12T22:07:03.530Z,65.33
2023-02-12T22:09:32.369Z,65.07
2023-02-12T22:12:00.764Z,65.21
2023-02-12T22:14:29.323Z,64.86
2023-02-12T22:16:57.609Z,65.20
2023-02-12T22:19:25.872Z,65.20
2023-02-12T22:21:54.354Z,64.90
2023-02-12T22:24:22.856Z,64.82
2023-02-12T22:26:51.229Z,64.94
2023-02-12T22:29:19.992Z,64.87
2023-02-12T22:31:48.893Z,64.81
2023-02-12T22:34:19.167Z,64.86
2023-02-12T22:36:48.458Z,65.12
2023-02-12T22:39:17.936Z,65.07
2023-02-12T22:41:46.650Z,65.07
2023-02-12T22:44:17.018Z,65.10
2023-02-12T22:46:45.677Z,64.90
2023-02-12T22:49:14.666Z,65.12
2023-02-12T22:51:43.050Z,65.41
2023-02-12T22:54:15.430Z,66.16
2023-02-12T22:56:44.655Z,66.20
2023-02-12T22:59:13.435Z,66.49
2023-02-12T23:01:42.521Z,68.08
2023-02-12T23:04:16.764Z,67.99
2023-02-12T23:06:45.865Z,67.62
2023-02-12T23:09:17.877Z,68.26
2023-02-12T23:11:47.033Z,67.95
2023-02-12T23:14:15.287Z,67.92
2023-02-12T23:16:43.939Z,67.52
2023-02-12T23:19:13.168Z,67.92
2023-02-12T23:21:42.087Z,67.54
2023-02-12T23:24:15.129Z,67.52
2023-02-12T23:26:43.802Z,67.68
2023-02-12T23:29:12.271Z,67.77
2023-02-12T23:31:40.766Z,67.26
2023-02-12T23:34:09.448Z,67.32
2023-02-12T23:36:37.629Z,67.55
2023-02-12T23:39:06.259Z,67.44
2023-02-12T23:41:34.807Z,67.87
2023-02-12T23:44:04.037Z,67.93
2023-02-12T23:46:32.412Z,68.04
2023-02-12T23:49:00.894Z,68.19
2023-02-12T23:51:30.927Z,68.46
2023-02-12T23:53:59.196Z,68.74
2023-02-12T23:56:27.735Z,69.52
2023-02-12T23:58:57.593Z,69.33
